ADDS METAR Data INFO
IDs: Format: Raw Decoded Include TAF

Data at: 1042 UTC 24 Jun 2018

METAR for:KSJC (San Jose Intl Arpt, CA, US)
Text:KSJC 240953Z AUTO 13010KT 10SM CLR 16/12 A2977 RMK AO2 SLP082 T01610117
Temperature: 16.1°C ( 61°F)
Dewpoint: 11.7°C ( 53°F) [RH = 75%]
Pressure (altimeter):29.77 inches Hg (1008.2 mb) [Sea level pressure: 1008.2 mb]
Winds:from the SE (130 degrees) at 12 MPH (10 knots; 5.1 m/s)
Visibility:10 or more sm (16+ km)
Ceiling:at least 12,000 feet AGL
Clouds:sky clear below 12,000 feet AGL
QC Flag:automated observation with no human augmentation
Text:KSJC 240853Z AUTO 13011KT 10SM CLR 17/12 A2977 RMK AO2 SLP081 T01720117 55001
Temperature: 17.2°C ( 63°F)
Dewpoint: 11.7°C ( 53°F) [RH = 70%]
Pressure (altimeter):29.77 inches Hg (1008.2 mb) [Sea level pressure: 1008.1 mb]
Winds:from the SE (130 degrees) at 13 MPH (11 knots; 5.7 m/s)
Visibility:10 or more sm (16+ km)
Ceiling:at least 12,000 feet AGL
Clouds:sky clear below 12,000 feet AGL
QC Flag:automated observation with no human augmentation
Text:KSJC 240753Z AUTO 13013KT 10SM CLR 18/12 A2977 RMK AO2 SLP079 T01780117 403670167
Temperature: 17.8°C ( 64°F)
Dewpoint: 11.7°C ( 53°F) [RH = 67%]
Pressure (altimeter):29.77 inches Hg (1008.2 mb) [Sea level pressure: 1007.9 mb]
Winds:from the SE (130 degrees) at 15 MPH (13 knots; 6.7 m/s)
Visibility:10 or more sm (16+ km)
Ceiling:at least 12,000 feet AGL
Clouds:sky clear below 12,000 feet AGL
QC Flag:automated observation with no human augmentation
Text:KSJC 240653Z 13012KT 10SM CLR 19/11 A2977 RMK AO2 SLP081 LAST T01890111
Temperature: 18.9°C ( 66°F)
Dewpoint: 11.1°C ( 52°F) [RH = 61%]
Pressure (altimeter):29.77 inches Hg (1008.2 mb) [Sea level pressure: 1008.1 mb]
Winds:from the SE (130 degrees) at 14 MPH (12 knots; 6.2 m/s)
Visibility:10 or more sm (16+ km)
Ceiling:at least 12,000 feet AGL
Clouds:sky clear below 12,000 feet AGL
Text:KSJC 240553Z 12011KT 10SM CLR 20/11 A2977 RMK AO2 SLP082 T02000111 10350 20200 51025
Temperature: 20.0°C ( 68°F)
Dewpoint: 11.1°C ( 52°F) [RH = 57%]
Pressure (altimeter):29.77 inches Hg (1008.2 mb) [Sea level pressure: 1008.2 mb]
Winds:from the ESE (120 degrees) at 13 MPH (11 knots; 5.7 m/s)
Visibility:10 or more sm (16+ km)
Ceiling:at least 12,000 feet AGL
Clouds:sky clear below 12,000 feet AGL
Text:KSJC 240453Z 13009KT 10SM CLR 22/12 A2977 RMK AO2 SLP078 T02220117
Temperature: 22.2°C ( 72°F)
Dewpoint: 11.7°C ( 53°F) [RH = 51%]
Pressure (altimeter):29.77 inches Hg (1008.2 mb) [Sea level pressure: 1007.8 mb]
Winds:from the SE (130 degrees) at 10 MPH (9 knots; 4.6 m/s)
Visibility:10 or more sm (16+ km)
Ceiling:at least 12,000 feet AGL
Clouds:sky clear below 12,000 feet AGL
Text:KSJC 240353Z 22006KT 10SM FEW028 26/11 A2973 RMK AO2 SLP066 T02610111
Temperature: 26.1°C ( 79°F)
Dewpoint: 11.1°C ( 52°F) [RH = 39%]
Pressure (altimeter):29.73 inches Hg (1006.9 mb) [Sea level pressure: 1006.6 mb]
Winds:from the SW (220 degrees) at 7 MPH (6 knots; 3.1 m/s)
Visibility:10 or more sm (16+ km)
Ceiling:at least 12,000 feet AGL
Clouds: few clouds at 2800 feet AGL
Text:KSJC 240253Z 28011KT 10SM FEW045 28/12 A2970 RMK AO2 SLP057 FU FEW045 T02830117 53001
Temperature: 28.3°C ( 83°F)
Dewpoint: 11.7°C ( 53°F) [RH = 36%]
Pressure (altimeter):29.70 inches Hg (1005.8 mb) [Sea level pressure: 1005.7 mb]
Winds:from the W (280 degrees) at 13 MPH (11 knots; 5.7 m/s)
Visibility:10 or more sm (16+ km)
Ceiling:at least 12,000 feet AGL
Clouds: few clouds at 4500 feet AGL
Text:KSJC 240153Z 29014KT 10SM CLR 31/12 A2969 RMK AO2 SLP053 T03110122
Temperature: 31.1°C ( 88°F)
Dewpoint: 12.2°C ( 54°F) [RH = 31%]
Pressure (altimeter):29.69 inches Hg (1005.5 mb) [Sea level pressure: 1005.3 mb]
Winds:from the WNW (290 degrees) at 16 MPH (14 knots; 7.2 m/s)
Visibility:10 or more sm (16+ km)
Ceiling:at least 12,000 feet AGL
Clouds:sky clear below 12,000 feet AGL
Text:KSJC 240053Z 31010KT 10SM CLR 34/11 A2969 RMK AO2 SLP052 T03440106
Temperature: 34.4°C ( 94°F)
Dewpoint: 10.6°C ( 51°F) [RH = 24%]
Pressure (altimeter):29.69 inches Hg (1005.5 mb) [Sea level pressure: 1005.2 mb]
Winds:from the NW (310 degrees) at 12 MPH (10 knots; 5.1 m/s)
Visibility:10 or more sm (16+ km)
Ceiling:at least 12,000 feet AGL
Clouds:sky clear below 12,000 feet AGL
Text:KSJC 232353Z 30012KT 10SM CLR 35/12 A2970 RMK AO2 SLP056 T03500117 10367 20278 56015
Temperature: 35.0°C ( 95°F)
Dewpoint: 11.7°C ( 53°F) [RH = 24%]
Pressure (altimeter):29.70 inches Hg (1005.8 mb) [Sea level pressure: 1005.6 mb]
Winds:from the WNW (300 degrees) at 14 MPH (12 knots; 6.2 m/s)
Visibility:10 or more sm (16+ km)
Ceiling:at least 12,000 feet AGL
Clouds:sky clear below 12,000 feet AGL
Text:KSJC 232253Z 31013KT 10SM CLR 36/10 A2971 RMK AO2 SLP060 T03610100
Temperature: 36.1°C ( 97°F)
Dewpoint: 10.0°C ( 50°F) [RH = 21%]
Pressure (altimeter):29.71 inches Hg (1006.2 mb) [Sea level pressure: 1006.0 mb]
Winds:from the NW (310 degrees) at 15 MPH (13 knots; 6.7 m/s)
Visibility:10 or more sm (16+ km)
Ceiling:at least 12,000 feet AGL
Clouds:sky clear below 12,000 feet AGL